Huvudsida
METAR-TAF:

METAR-TAF

Flygplatser :

Pian Rosa, Italien

latitud: 45-56N, longitud: 007-42E, höjd: 3480 m

Aktuellt väderrapport

Denna rapport gjordes för 35 minuter sedan, klockan 22:55 UTC
Vind 5 kt från sydväst
Temperatur -13°C
Fuktighet 92%
Tryck 999 hPa
Sikt: 0800 m
underkyld dimma

METAR: LIMH 172255Z 22005KT 0800 FZFG VV/// M13/M14 Q0999 RMK MON INVIS VAL INVIS VIS MIN 0800

Tid: 00:30 (23:30 UTC)


TAF: saknas

Aktuella väderrapporter och prognoser från 4000 flygplatser (METAR- och TAF-rapporter).

De tillgängliga stationerna syns som gula och röda prickar på kartan.

För musen över prickarna för att se namnen på stationerna.

Klicka sedan för att få väderrapporter och prognoser.

För att ändra kartan: Klicka på de gröna knapparna med ett svart kors på för att zooma in; den gröna knappen med ett streck på för att zooma ut; eller på de gröna pilarna för angränsande kartor.


METAR-TAF: